createdAt,value
2019-02-11T00:00:03.687Z,998.79
2019-02-11T00:01:03.682Z,998.80
2019-02-11T00:02:03.658Z,998.85
2019-02-11T00:03:03.676Z,998.80
2019-02-11T00:04:03.643Z,998.86
2019-02-11T00:05:03.635Z,998.92
2019-02-11T00:06:03.610Z,998.96
2019-02-11T00:07:03.597Z,999.00
2019-02-11T00:08:03.605Z,998.99
2019-02-11T00:09:03.637Z,999.01
2019-02-11T00:10:03.570Z,999.04
2019-02-11T00:11:03.563Z,999.02
2019-02-11T00:12:03.559Z,999.14
2019-02-11T00:13:10.366Z,999.15
2019-02-11T00:14:04.528Z,999.11
2019-02-11T00:15:03.525Z,999.20
2019-02-11T00:16:03.538Z,999.19
2019-02-11T00:17:03.507Z,999.15
2019-02-11T00:18:03.494Z,999.20
2019-02-11T00:19:03.478Z,999.18
2019-02-11T00:20:03.457Z,999.24
2019-02-11T00:21:03.441Z,999.23
2019-02-11T00:22:03.503Z,999.30
2019-02-11T00:23:03.421Z,999.31
2019-02-11T00:24:03.437Z,999.32
2019-02-11T00:25:03.411Z,999.36
2019-02-11T00:26:03.387Z,999.36
2019-02-11T00:27:03.382Z,999.38
2019-02-11T00:28:03.364Z,999.44
2019-02-11T00:29:03.357Z,999.49
2019-02-11T00:30:03.353Z,999.49
2019-02-11T00:31:03.337Z,999.48
2019-02-11T00:32:03.345Z,999.57
2019-02-11T00:33:03.308Z,999.56
2019-02-11T00:34:03.304Z,999.65
2019-02-11T00:35:03.297Z,999.62
2019-02-11T00:36:03.277Z,999.68
2019-02-11T00:37:03.270Z,999.66
2019-02-11T00:38:03.293Z,999.71
2019-02-11T00:39:03.313Z,999.70
2019-02-11T00:40:03.250Z,999.72
2019-02-11T00:41:03.216Z,999.77
2019-02-11T00:42:03.209Z,999.79
2019-02-11T00:43:03.195Z,999.77
2019-02-11T00:44:03.182Z,999.87
2019-02-11T00:45:03.215Z,999.88
2019-02-11T00:46:03.197Z,999.91
2019-02-11T00:47:03.174Z,999.92
2019-02-11T00:48:03.138Z,999.93
2019-02-11T00:49:03.138Z,999.99
2019-02-11T00:50:03.147Z,1000.01
2019-02-11T00:51:03.112Z,1000.02
2019-02-11T00:52:03.158Z,1000.05
2019-02-11T00:53:03.100Z,1000.10
2019-02-11T00:54:03.074Z,1000.15
2019-02-11T00:55:03.079Z,1000.23
2019-02-11T00:56:03.057Z,1000.20
2019-02-11T00:57:03.050Z,1000.27
2019-02-11T00:58:03.055Z,1000.23
2019-02-11T00:59:03.018Z,1000.36
2019-02-11T01:00:03.019Z,1000.33
2019-02-11T01:01:02.996Z,1000.37
2019-02-11T01:02:02.983Z,1000.43
2019-02-11T01:03:03.007Z,1000.46
2019-02-11T01:04:02.984Z,1000.45
2019-02-11T01:05:02.957Z,1000.48
2019-02-11T01:06:02.949Z,1000.50
2019-02-11T01:07:02.933Z,1000.53
2019-02-11T01:08:02.913Z,1000.60
2019-02-11T01:09:02.904Z,1000.60
2019-02-11T01:10:02.923Z,1000.64
2019-02-11T01:11:02.884Z,1000.64
2019-02-11T01:12:02.874Z,1000.69
2019-02-11T01:13:02.871Z,1000.71
2019-02-11T01:14:02.891Z,1000.79
2019-02-11T01:15:02.862Z,1000.78
2019-02-11T01:16:02.838Z,1000.80
2019-02-11T01:17:02.824Z,1000.78
2019-02-11T01:18:02.807Z,1000.88
2019-02-11T01:19:02.791Z,1000.89
2019-02-11T01:20:02.778Z,1000.90
2019-02-11T01:21:02.814Z,1000.94
2019-02-11T01:22:02.781Z,1000.98
2019-02-11T01:23:02.758Z,1001.01
2019-02-11T01:24:02.739Z,1001.05
2019-02-11T01:25:02.730Z,1001.05
2019-02-11T01:26:02.754Z,1001.07
2019-02-11T01:27:02.706Z,1001.01
2019-02-11T01:28:02.690Z,1001.05
2019-02-11T01:29:02.708Z,1001.07
2019-02-11T01:30:02.669Z,1001.07
2019-02-11T01:31:02.676Z,1001.08
2019-02-11T01:32:02.659Z,1001.10
2019-02-11T01:33:02.677Z,1001.09
2019-02-11T01:34:02.629Z,1001.10
2019-02-11T01:35:02.661Z,1001.13
2019-02-11T01:36:02.599Z,1001.19
2019-02-11T01:37:02.597Z,1001.13
2019-02-11T01:38:02.594Z,1001.17
2019-02-11T01:39:02.569Z,1001.22
2019-02-11T01:40:02.555Z,1001.21
2019-02-11T01:41:02.571Z,1001.25
2019-02-11T01:42:02.543Z,1001.25
2019-02-11T01:43:02.540Z,1001.29
2019-02-11T01:44:02.510Z,1001.33
2019-02-11T01:45:02.514Z,1001.30
2019-02-11T01:46:02.496Z,1001.38
2019-02-11T01:47:02.476Z,1001.37
2019-02-11T01:48:02.462Z,1001.33
2019-02-11T01:49:02.456Z,1001.37
2019-02-11T01:50:02.447Z,1001.43
2019-02-11T01:51:02.526Z,1001.48
2019-02-11T01:52:02.545Z,1001.47
2019-02-11T01:53:02.428Z,1001.46
2019-02-11T01:54:02.403Z,1001.41
2019-02-11T01:55:02.410Z,1001.49
2019-02-11T01:56:02.405Z,1001.48
2019-02-11T01:57:02.376Z,1001.45
2019-02-11T01:58:02.357Z,1001.47
2019-02-11T01:59:02.363Z,1001.49
2019-02-11T02:00:02.328Z,1001.55
2019-02-11T02:01:02.327Z,1001.54
2019-02-11T02:02:02.310Z,1001.58
2019-02-11T02:03:02.297Z,1001.61
2019-02-11T02:04:02.321Z,1001.64
2019-02-11T02:05:02.275Z,1001.68
2019-02-11T02:06:02.305Z,1001.71
2019-02-11T02:07:02.248Z,1001.77
2019-02-11T02:08:02.244Z,1001.79
2019-02-11T02:09:02.245Z,1001.77
2019-02-11T02:10:02.237Z,1001.80
2019-02-11T02:11:02.208Z,1001.81
2019-02-11T02:12:02.205Z,1001.83
2019-02-11T02:13:02.190Z,1001.83
2019-02-11T02:14:02.174Z,1001.87
2019-02-11T02:15:02.166Z,1001.88
2019-02-11T02:16:02.156Z,1001.92
2019-02-11T02:17:02.170Z,1002.00
2019-02-11T02:18:02.136Z,1002.04
2019-02-11T02:19:02.115Z,1002.02
2019-02-11T02:20:02.106Z,1002.04
2019-02-11T02:21:02.095Z,1002.03
2019-02-11T02:22:02.167Z,1002.07
2019-02-11T02:23:02.068Z,1002.08
2019-02-11T02:24:02.087Z,1002.12
2019-02-11T02:25:02.063Z,1002.11
2019-02-11T02:26:02.037Z,1002.14
2019-02-11T02:27:02.032Z,1002.09
2019-02-11T02:28:02.038Z,1002.13
2019-02-11T02:29:02.002Z,1002.17
2019-02-11T02:30:01.998Z,1002.17
2019-02-11T02:31:02.000Z,1002.16
2019-02-11T02:32:01.984Z,1002.17
2019-02-11T02:33:01.963Z,1002.15
2019-02-11T02:34:01.948Z,1002.18
2019-02-11T02:35:01.934Z,1002.17
2019-02-11T02:36:01.932Z,1002.23
2019-02-11T02:37:01.926Z,1002.23
2019-02-11T02:38:01.914Z,1002.20
2019-02-11T02:39:01.892Z,1002.23
2019-02-11T02:40:01.886Z,1002.28
2019-02-11T02:41:01.880Z,1002.30
2019-02-11T02:42:01.866Z,1002.28
2019-02-11T02:43:01.845Z,1002.31
2019-02-11T02:44:01.832Z,1002.29
2019-02-11T02:45:01.848Z,1002.36
2019-02-11T02:46:01.811Z,1002.35
2019-02-11T02:47:01.813Z,1002.35
2019-02-11T02:48:01.791Z,1002.39
2019-02-11T02:49:01.782Z,1002.37
2019-02-11T02:50:01.789Z,1002.40
2019-02-11T02:51:01.786Z,1002.42
2019-02-11T02:52:01.804Z,1002.39
2019-02-11T02:53:01.736Z,1002.41
2019-02-11T02:54:01.724Z,1002.44
2019-02-11T02:55:01.710Z,1002.41
2019-02-11T02:56:01.700Z,1002.45
2019-02-11T02:57:01.703Z,1002.46
2019-02-11T02:58:01.702Z,1002.45
2019-02-11T02:59:01.683Z,1002.43
2019-02-11T03:00:01.658Z,1002.50
2019-02-11T03:01:01.643Z,1002.49
2019-02-11T03:02:01.643Z,1002.50
2019-02-11T03:03:01.645Z,1002.51
2019-02-11T03:04:01.624Z,1002.53
2019-02-11T03:05:01.603Z,1002.60
2019-02-11T03:06:01.589Z,1002.59
2019-02-11T03:07:01.574Z,1002.58
2019-02-11T03:08:01.578Z,1002.62
2019-02-11T03:09:01.563Z,1002.67
2019-02-11T03:10:01.568Z,1002.68
2019-02-11T03:11:01.563Z,1002.71
2019-02-11T03:12:01.521Z,1002.76
2019-02-11T03:13:01.519Z,1002.75
2019-02-11T03:14:05.641Z,1002.79
2019-02-11T03:15:01.490Z,1002.83
2019-02-11T03:16:01.491Z,1002.80
2019-02-11T03:17:01.461Z,1002.82
2019-02-11T03:18:01.515Z,1002.89
2019-02-11T03:19:01.468Z,1002.89
2019-02-11T03:20:01.437Z,1002.87
2019-02-11T03:21:01.429Z,1002.97
2019-02-11T03:22:01.441Z,1002.90
2019-02-11T03:23:01.422Z,1002.97
2019-02-11T03:24:01.388Z,1002.96
2019-02-11T03:25:01.547Z,1002.98
2019-02-11T03:26:01.366Z,1003.01
2019-02-11T03:27:01.362Z,1003.09
2019-02-11T03:28:01.349Z,1003.03
2019-02-11T03:29:01.328Z,1003.01
2019-02-11T03:30:01.314Z,1003.09
2019-02-11T03:31:01.323Z,1003.10
2019-02-11T03:32:01.332Z,1003.06
2019-02-11T03:33:01.304Z,1003.15
2019-02-11T03:34:01.270Z,1003.11
2019-02-11T03:35:01.263Z,1003.10
2019-02-11T03:36:01.250Z,1003.17
2019-02-11T03:37:01.240Z,1003.16
2019-02-11T03:38:01.266Z,1003.26
2019-02-11T03:39:01.253Z,1003.18
2019-02-11T03:40:01.243Z,1003.21
2019-02-11T03:41:01.191Z,1003.24
2019-02-11T03:42:01.180Z,1003.28
2019-02-11T03:43:01.184Z,1003.32
2019-02-11T03:44:01.204Z,1003.31
2019-02-11T03:45:01.193Z,1003.30
2019-02-11T03:46:01.135Z,1003.30
2019-02-11T03:47:01.125Z,1003.34
2019-02-11T03:48:01.129Z,1003.36
2019-02-11T03:49:01.129Z,1003.34
2019-02-11T03:50:01.127Z,1003.40
2019-02-11T03:51:01.091Z,1003.36
2019-02-11T03:52:01.086Z,1003.39
2019-02-11T03:53:01.066Z,1003.41
2019-02-11T03:54:01.065Z,1003.44
2019-02-11T03:55:01.050Z,1003.47
2019-02-11T03:56:01.064Z,1003.48
2019-02-11T03:57:01.024Z,1003.48
2019-02-11T03:58:01.012Z,1003.55
2019-02-11T03:59:00.999Z,1003.57
2019-02-11T04:00:00.999Z,1003.59
2019-02-11T04:01:00.969Z,1003.65
2019-02-11T04:02:00.993Z,1003.68
2019-02-11T04:03:00.955Z,1003.69
2019-02-11T04:04:00.940Z,1003.77
2019-02-11T04:05:00.966Z,1003.83
2019-02-11T04:06:00.935Z,1003.81
2019-02-11T04:07:00.948Z,1003.82
2019-02-11T04:08:00.900Z,1003.88
2019-02-11T04:09:00.879Z,1003.86
2019-02-11T04:10:00.922Z,1003.89
2019-02-11T04:11:00.866Z,1003.90
2019-02-11T04:12:00.848Z,1003.93
2019-02-11T04:13:00.882Z,1003.94
2019-02-11T04:14:00.828Z,1003.97
2019-02-11T04:15:00.814Z,1004.00
2019-02-11T04:16:00.824Z,1004.02
2019-02-11T04:17:00.796Z,1003.99
2019-02-11T04:18:00.775Z,1004.08
2019-02-11T04:19:00.781Z,1004.09
2019-02-11T04:20:00.757Z,1004.12
2019-02-11T04:21:00.752Z,1004.13
2019-02-11T04:22:00.758Z,1004.16
2019-02-11T04:23:00.748Z,1004.12
2019-02-11T04:24:00.722Z,1004.16
2019-02-11T04:25:00.701Z,1004.16
2019-02-11T04:26:00.691Z,1004.17
2019-02-11T04:27:00.684Z,1004.17
2019-02-11T04:28:00.697Z,1004.19
2019-02-11T04:29:00.675Z,1004.26
2019-02-11T04:30:00.664Z,1004.27
2019-02-11T04:31:00.637Z,1004.26
2019-02-11T04:32:00.625Z,1004.32
2019-02-11T04:33:00.612Z,1004.37
2019-02-11T04:34:00.623Z,1004.36
2019-02-11T04:35:00.601Z,1004.38
2019-02-11T04:36:00.577Z,1004.46
2019-02-11T04:37:00.564Z,1004.39
2019-02-11T04:38:00.552Z,1004.46
2019-02-11T04:39:00.565Z,1004.46
2019-02-11T04:40:00.553Z,1004.48
2019-02-11T04:41:00.519Z,1004.42
2019-02-11T04:42:00.507Z,1004.47
2019-02-11T04:43:00.496Z,1004.51
2019-02-11T04:44:00.530Z,1004.52
2019-02-11T04:45:00.543Z,1004.54
2019-02-11T04:46:00.503Z,1004.58
2019-02-11T04:47:00.474Z,1004.62
2019-02-11T04:48:00.450Z,1004.64
2019-02-11T04:49:00.523Z,1004.66
2019-02-11T04:50:00.466Z,1004.65
2019-02-11T04:51:00.406Z,1004.62
2019-02-11T04:52:00.522Z,1004.66
2019-02-11T04:53:00.388Z,1004.72
2019-02-11T04:54:00.391Z,1004.73
2019-02-11T04:55:00.358Z,1004.82
2019-02-11T04:56:00.373Z,1004.80
2019-02-11T04:57:00.346Z,1004.93
2019-02-11T04:58:00.391Z,1004.83
2019-02-11T04:59:00.335Z,1004.88
2019-02-11T05:00:00.449Z,1004.92
2019-02-11T05:01:00.293Z,1004.97
2019-02-11T05:02:00.337Z,1004.98
2019-02-11T05:03:00.272Z,1005.04
2019-02-11T05:04:00.258Z,1005.06
2019-02-11T05:05:00.253Z,1005.11
2019-02-11T05:06:00.242Z,1005.07
2019-02-11T05:07:00.236Z,1005.16
2019-02-11T05:08:00.242Z,1005.08
2019-02-11T05:09:00.213Z,1005.16
2019-02-11T05:10:00.222Z,1005.16
2019-02-11T05:11:00.181Z,1005.21
2019-02-11T05:12:00.177Z,1005.17
2019-02-11T05:13:00.156Z,1005.20
2019-02-11T05:14:00.153Z,1005.19
2019-02-11T05:15:00.194Z,1005.24
2019-02-11T05:16:00.128Z,1005.26
2019-02-11T05:17:00.113Z,1005.23
2019-02-11T05:18:00.106Z,1005.25
2019-02-11T05:19:00.116Z,1005.29
2019-02-11T05:20:00.091Z,1005.26
2019-02-11T05:21:00.111Z,1005.32
2019-02-11T05:22:00.130Z,1005.33
2019-02-11T05:23:00.048Z,1005.28
2019-02-11T05:24:00.064Z,1005.32
2019-02-11T05:25:00.037Z,1005.34
2019-02-11T05:26:00.017Z,1005.31
2019-02-11T05:27:00.045Z,1005.34
2019-02-11T05:27:59.989Z,1005.43
2019-02-11T05:29:00.017Z,1005.33
2019-02-11T05:30:00.539Z,1005.36
2019-02-11T05:31:00.928Z,1005.31
2019-02-11T05:31:59.945Z,1005.38
2019-02-11T05:32:59.976Z,1005.39
2019-02-11T05:33:59.966Z,1005.43
2019-02-11T05:34:59.930Z,1005.40
2019-02-11T05:35:59.904Z,1005.43
2019-02-11T05:36:59.890Z,1005.41
2019-02-11T05:37:59.900Z,1005.41
2019-02-11T05:38:59.885Z,1005.41
2019-02-11T05:39:59.888Z,1005.46
2019-02-11T05:40:59.852Z,1005.44
2019-02-11T05:41:59.857Z,1005.53
2019-02-11T05:42:59.828Z,1005.47
2019-02-11T05:43:59.835Z,1005.52
2019-02-11T05:44:59.809Z,1005.56
2019-02-11T05:45:59.788Z,1005.49
2019-02-11T05:46:59.852Z,1005.54
2019-02-11T05:47:59.765Z,1005.60
2019-02-11T05:48:59.751Z,1005.59
2019-02-11T05:49:59.751Z,1005.59
2019-02-11T05:50:59.735Z,1005.64
2019-02-11T05:51:59.754Z,1005.61
2019-02-11T05:52:59.751Z,1005.68
2019-02-11T05:53:59.734Z,1005.70
2019-02-11T05:54:59.695Z,1005.71
2019-02-11T05:55:59.680Z,1005.74
2019-02-11T05:56:59.677Z,1005.78
2019-02-11T05:57:59.664Z,1005.80
2019-02-11T05:58:59.645Z,1005.79
2019-02-11T05:59:59.651Z,1005.83
2019-02-11T06:00:59.631Z,1005.83
2019-02-11T06:01:59.615Z,1005.90
2019-02-11T06:02:59.629Z,1005.95
2019-02-11T06:03:59.588Z,1005.95
2019-02-11T06:04:59.572Z,1005.94
2019-02-11T06:05:59.560Z,1005.94
2019-02-11T06:06:59.601Z,1005.98
2019-02-11T06:07:59.547Z,1005.99
2019-02-11T06:08:59.607Z,1005.99
2019-02-11T06:09:59.517Z,1005.98
2019-02-11T06:10:59.532Z,1005.97
2019-02-11T06:11:59.497Z,1005.98
2019-02-11T06:12:59.498Z,1006.03
2019-02-11T06:13:59.481Z,1006.05
2019-02-11T06:15:04.233Z,1006.09
2019-02-11T06:16:00.451Z,1006.08
2019-02-11T06:16:59.447Z,1006.12
2019-02-11T06:17:59.432Z,1006.15
2019-02-11T06:18:59.428Z,1006.13
2019-02-11T06:19:59.455Z,1006.16
2019-02-11T06:20:59.411Z,1006.15
2019-02-11T06:21:59.517Z,1006.20
2019-02-11T06:22:59.374Z,1006.18
2019-02-11T06:23:59.372Z,1006.27
2019-02-11T06:24:59.375Z,1006.24
2019-02-11T06:25:59.356Z,1006.27
2019-02-11T06:26:59.357Z,1006.31
2019-02-11T06:27:59.319Z,1006.32
2019-02-11T06:28:59.309Z,1006.31
2019-02-11T06:29:59.302Z,1006.39
2019-02-11T06:30:59.281Z,1006.35
2019-02-11T06:31:59.269Z,1006.48
2019-02-11T06:32:59.319Z,1006.43
2019-02-11T06:33:59.252Z,1006.51
2019-02-11T06:34:59.250Z,1006.58
2019-02-11T06:35:59.244Z,1006.62
2019-02-11T06:36:59.223Z,1006.64
2019-02-11T06:37:59.203Z,1006.62
2019-02-11T06:38:59.230Z,1006.67
2019-02-11T06:39:59.190Z,1006.69
2019-02-11T06:40:59.174Z,1006.74
2019-02-11T06:41:59.158Z,1006.78
2019-02-11T06:42:59.145Z,1006.87
2019-02-11T06:43:59.142Z,1006.86
2019-02-11T06:44:59.161Z,1006.94
2019-02-11T06:45:59.116Z,1006.96
2019-02-11T06:46:59.167Z,1006.97
2019-02-11T06:47:59.092Z,1007.00
2019-02-11T06:48:59.101Z,1007.02
2019-02-11T06:49:59.070Z,1007.01
2019-02-11T06:50:59.077Z,1007.06
2019-02-11T06:51:59.057Z,1007.06
2019-02-11T06:52:59.107Z,1007.10
2019-02-11T06:53:59.055Z,1007.09
2019-02-11T06:54:59.008Z,1007.11
2019-02-11T06:55:59.010Z,1007.18
2019-02-11T06:56:58.991Z,1007.23
2019-02-11T06:57:58.975Z,1007.29
2019-02-11T06:58:58.971Z,1007.31
2019-02-11T06:59:58.967Z,1007.36
2019-02-11T07:00:58.949Z,1007.40
2019-02-11T07:01:58.939Z,1007.37
2019-02-11T07:02:58.925Z,1007.43
2019-02-11T07:03:58.919Z,1007.48
2019-02-11T07:04:58.897Z,1007.53
2019-02-11T07:05:58.920Z,1007.54
2019-02-11T07:06:58.890Z,1007.56
2019-02-11T07:07:58.901Z,1007.63
2019-02-11T07:08:58.861Z,1007.61
2019-02-11T07:09:58.899Z,1007.64
2019-02-11T07:10:58.860Z,1007.67
2019-02-11T07:11:58.824Z,1007.71
2019-02-11T07:12:58.893Z,1007.69
2019-02-11T07:13:58.814Z,1007.75
2019-02-11T07:14:58.913Z,1007.76
2019-02-11T07:15:58.779Z,1007.82
2019-02-11T07:16:58.770Z,1007.79
2019-02-11T07:17:58.759Z,1007.83
2019-02-11T07:18:58.752Z,1007.83
2019-02-11T07:19:58.788Z,1007.92
2019-02-11T07:20:58.720Z,1007.89
2019-02-11T07:21:58.807Z,1007.92
2019-02-11T07:22:58.725Z,1007.89
2019-02-11T07:23:58.680Z,1007.97
2019-02-11T07:24:58.675Z,1007.95
2019-02-11T07:25:58.666Z,1007.95
2019-02-11T07:26:58.666Z,1008.03
2019-02-11T07:27:58.666Z,1008.04
2019-02-11T07:28:58.663Z,1008.04
2019-02-11T07:29:58.626Z,1008.13
2019-02-11T07:30:58.620Z,1008.11
2019-02-11T07:31:58.607Z,1008.12
2019-02-11T07:32:58.630Z,1008.12
2019-02-11T07:33:58.588Z,1008.15
2019-02-11T07:34:58.591Z,1008.19
2019-02-11T07:35:58.551Z,1008.15
2019-02-11T07:36:58.563Z,1008.25
2019-02-11T07:37:58.528Z,1008.28
2019-02-11T07:38:58.549Z,1008.32
2019-02-11T07:39:58.531Z,1008.30
2019-02-11T07:40:58.593Z,1008.33
2019-02-11T07:41:58.499Z,1008.37
2019-02-11T07:42:58.556Z,1008.40
2019-02-11T07:43:58.464Z,1008.44
2019-02-11T07:44:58.461Z,1008.46
2019-02-11T07:45:58.440Z,1008.55
2019-02-11T07:46:58.428Z,1008.59
2019-02-11T07:47:58.423Z,1008.58
2019-02-11T07:48:58.430Z,1008.65
2019-02-11T07:49:58.431Z,1008.60
2019-02-11T07:50:58.387Z,1008.65
2019-02-11T07:51:58.408Z,1008.66
2019-02-11T07:52:58.618Z,1008.71
2019-02-11T07:53:58.346Z,1008.65
2019-02-11T07:54:58.342Z,1008.66
2019-02-11T07:55:58.379Z,1008.71
2019-02-11T07:56:58.311Z,1008.72
2019-02-11T07:57:58.311Z,1008.74
2019-02-11T07:58:58.306Z,1008.76
2019-02-11T07:59:58.312Z,1008.79
2019-02-11T08:00:58.309Z,1008.82
2019-02-11T08:01:58.259Z,1008.81
2019-02-11T08:02:58.333Z,1008.81
2019-02-11T08:03:58.234Z,1008.85
2019-02-11T08:04:58.263Z,1008.85
2019-02-11T08:05:58.223Z,1008.86
2019-02-11T08:06:58.208Z,1008.85
2019-02-11T08:07:58.200Z,1008.83
2019-02-11T08:08:58.237Z,1008.83
2019-02-11T08:09:58.178Z,1008.85
2019-02-11T08:10:58.176Z,1008.85
2019-02-11T08:11:58.205Z,1008.87
2019-02-11T08:12:58.141Z,1008.90
2019-02-11T08:13:58.129Z,1008.94
2019-02-11T08:14:58.118Z,1009.04
2019-02-11T08:15:58.142Z,1009.00
2019-02-11T08:16:58.154Z,1009.02
2019-02-11T08:17:58.283Z,1009.03
2019-02-11T08:18:58.107Z,1009.05
2019-02-11T08:19:58.065Z,1009.05
2019-02-11T08:20:58.058Z,1009.05
2019-02-11T08:21:58.056Z,1009.08
2019-02-11T08:22:58.065Z,1009.08
2019-02-11T08:23:58.030Z,1009.08
2019-02-11T08:24:58.005Z,1009.04
2019-02-11T08:25:58.295Z,1009.09
2019-02-11T08:26:57.996Z,1009.09
2019-02-11T08:27:57.998Z,1009.14
2019-02-11T08:28:57.966Z,1009.11
2019-02-11T08:29:59.109Z,1009.18
2019-02-11T08:30:57.936Z,1009.18
2019-02-11T08:31:57.951Z,1009.22
2019-02-11T08:32:57.944Z,1009.24
2019-02-11T08:33:57.942Z,1009.20
2019-02-11T08:34:57.902Z,1009.23
2019-02-11T08:35:57.879Z,1009.26
2019-02-11T08:36:57.926Z,1009.26
2019-02-11T08:37:57.879Z,1009.33
2019-02-11T08:38:57.855Z,1009.38
2019-02-11T08:39:57.847Z,1009.44
2019-02-11T08:40:58.630Z,1009.52
2019-02-11T08:41:57.828Z,1009.51
2019-02-11T08:42:57.817Z,1009.51
2019-02-11T08:43:58.304Z,1009.51
2019-02-11T08:44:57.781Z,1009.51
2019-02-11T08:45:57.784Z,1009.54
2019-02-11T08:46:57.801Z,1009.52
2019-02-11T08:47:57.785Z,1009.59
2019-02-11T08:48:57.814Z,1009.54
2019-02-11T08:49:57.726Z,1009.65
2019-02-11T08:50:57.722Z,1009.68
2019-02-11T08:51:57.791Z,1009.72
2019-02-11T08:52:57.695Z,1009.75
2019-02-11T08:53:57.694Z,1009.68
2019-02-11T08:54:57.693Z,1009.72
2019-02-11T08:55:57.713Z,1009.75
2019-02-11T08:56:57.690Z,1009.75
2019-02-11T08:57:57.670Z,1009.77
2019-02-11T08:58:57.632Z,1009.79
2019-02-11T08:59:57.630Z,1009.80
2019-02-11T09:00:57.619Z,1009.84
2019-02-11T09:01:57.636Z,1009.83
2019-02-11T09:02:57.587Z,1009.90
2019-02-11T09:03:57.914Z,1009.88
2019-02-11T09:04:57.562Z,1009.94
2019-02-11T09:05:57.579Z,1009.94
2019-02-11T09:06:57.534Z,1009.98
2019-02-11T09:07:57.526Z,1009.99
2019-02-11T09:08:57.525Z,1009.98
2019-02-11T09:09:57.533Z,1009.98
2019-02-11T09:10:57.635Z,1010.04
2019-02-11T09:11:57.479Z,1010.02
2019-02-11T09:12:57.471Z,1010.03
2019-02-11T09:13:57.466Z,1010.04
2019-02-11T09:14:57.519Z,1010.05
2019-02-11T09:15:57.445Z,1010.06
2019-02-11T09:16:57.439Z,1010.08
2019-02-11T09:17:57.430Z,1010.09
2019-02-11T09:18:57.415Z,1010.11
2019-02-11T09:19:57.406Z,1010.14
2019-02-11T09:20:57.473Z,1010.13
2019-02-11T09:22:07.687Z,1010.19
2019-02-11T09:22:58.361Z,1010.22
2019-02-11T09:23:57.357Z,1010.24
2019-02-11T09:24:57.417Z,1010.23
2019-02-11T09:25:57.333Z,1010.26
2019-02-11T09:26:57.314Z,1010.29
2019-02-11T09:27:57.321Z,1010.32
2019-02-11T09:28:57.362Z,1010.31
2019-02-11T09:29:57.313Z,1010.32
2019-02-11T09:30:57.305Z,1010.38
2019-02-11T09:31:57.254Z,1010.39
2019-02-11T09:32:57.258Z,1010.45
2019-02-11T09:33:57.291Z,1010.45
2019-02-11T09:34:57.240Z,1010.45
2019-02-11T09:35:57.265Z,1010.50
2019-02-11T09:36:57.312Z,1010.55
2019-02-11T09:37:57.205Z,1010.49
2019-02-11T09:38:57.191Z,1010.50
2019-02-11T09:39:57.169Z,1010.52
2019-02-11T09:40:57.170Z,1010.58
2019-02-11T09:41:57.144Z,1010.64
2019-02-11T09:42:57.192Z,1010.61
2019-02-11T09:43:57.163Z,1010.64
2019-02-11T09:44:57.119Z,1010.65
2019-02-11T09:46:03.762Z,1010.68
2019-02-11T09:46:58.100Z,1010.71
2019-02-11T09:47:57.079Z,1010.76
2019-02-11T09:48:57.066Z,1010.76
2019-02-11T09:49:57.065Z,1010.83
2019-02-11T09:50:57.046Z,1010.80
2019-02-11T09:51:57.100Z,1010.83
2019-02-11T09:52:57.039Z,1010.82
2019-02-11T09:53:57.046Z,1010.87
2019-02-11T09:54:57.053Z,1010.86
2019-02-11T09:55:57.069Z,1010.84
2019-02-11T09:56:57.083Z,1010.90
2019-02-11T09:57:57.023Z,1010.93
2019-02-11T09:58:57.163Z,1010.93
2019-02-11T09:59:57.168Z,1010.89
2019-02-11T10:00:57.027Z,1010.92
2019-02-11T10:01:56.951Z,1010.89
2019-02-11T10:02:56.919Z,1010.93
2019-02-11T10:03:56.897Z,1010.92
2019-02-11T10:04:56.906Z,1010.92
2019-02-11T10:05:56.945Z,1010.98
2019-02-11T10:06:56.882Z,1010.96
2019-02-11T10:07:56.861Z,1010.96
2019-02-11T10:08:56.870Z,1011.00
2019-02-11T10:09:56.902Z,1011.02
2019-02-11T10:10:56.838Z,1011.01
2019-02-11T10:11:57.132Z,1011.02
2019-02-11T10:12:56.826Z,1011.10
2019-02-11T10:13:56.806Z,1011.09
2019-02-11T10:14:56.782Z,1011.08
2019-02-11T10:15:56.912Z,1011.13
2019-02-11T10:16:56.769Z,1011.15
2019-02-11T10:17:56.746Z,1011.18
2019-02-11T10:18:56.756Z,1011.15
2019-02-11T10:19:56.740Z,1011.21
2019-02-11T10:20:56.710Z,1011.20
2019-02-11T10:21:56.737Z,1011.24
2019-02-11T10:22:56.729Z,1011.29
2019-02-11T10:23:56.711Z,1011.28
2019-02-11T10:24:56.696Z,1011.26
2019-02-11T10:25:56.659Z,1011.28
2019-02-11T10:26:56.653Z,1011.33
2019-02-11T10:27:56.637Z,1011.29
2019-02-11T10:28:56.829Z,1011.36
2019-02-11T10:29:56.635Z,1011.39
2019-02-11T10:30:56.625Z,1011.41
2019-02-11T10:31:56.612Z,1011.43
2019-02-11T10:32:56.579Z,1011.46
2019-02-11T10:33:56.570Z,1011.49
2019-02-11T10:34:56.561Z,1011.52
2019-02-11T10:35:56.558Z,1011.55
2019-02-11T10:36:56.586Z,1011.52
2019-02-11T10:37:56.541Z,1011.58
2019-02-11T10:38:56.522Z,1011.54
2019-02-11T10:39:56.516Z,1011.63
2019-02-11T10:40:56.629Z,1011.59
2019-02-11T10:41:56.498Z,1011.56
2019-02-11T10:42:56.492Z,1011.58
2019-02-11T10:43:56.484Z,1011.63
2019-02-11T10:44:56.447Z,1011.65
2019-02-11T10:45:56.436Z,1011.73
2019-02-11T10:46:56.441Z,1011.70
2019-02-11T10:47:56.429Z,1011.75
2019-02-11T10:48:56.448Z,1011.77
2019-02-11T10:49:56.500Z,1011.80
2019-02-11T10:50:56.443Z,1011.85
2019-02-11T10:52:01.272Z,1011.84
2019-02-11T10:52:56.394Z,1011.84
2019-02-11T10:53:56.345Z,1011.83
2019-02-11T10:54:56.390Z,1011.88
2019-02-11T10:55:56.329Z,1011.93
2019-02-11T10:56:56.422Z,1011.92
2019-02-11T10:57:56.316Z,1011.90
2019-02-11T10:58:56.296Z,1011.90
2019-02-11T10:59:56.298Z,1011.91
2019-02-11T11:00:56.551Z,1011.94
2019-02-11T11:01:56.265Z,1011.90
2019-02-11T11:02:56.254Z,1011.91
2019-02-11T11:03:56.300Z,1011.88
2019-02-11T11:04:56.238Z,1011.86
2019-02-11T11:05:56.225Z,1011.87
2019-02-11T11:06:56.238Z,1011.88
2019-02-11T11:07:56.206Z,1011.85
2019-02-11T11:08:56.189Z,1011.88
2019-02-11T11:09:56.254Z,1011.91
2019-02-11T11:10:56.205Z,1011.90
2019-02-11T11:11:56.152Z,1011.96
2019-02-11T11:12:56.162Z,1012.03
2019-02-11T11:13:56.126Z,1011.96
2019-02-11T11:14:56.133Z,1011.98
2019-02-11T11:15:56.111Z,1011.98
2019-02-11T11:16:56.096Z,1012.05
2019-02-11T11:17:56.088Z,1012.11
2019-02-11T11:18:56.081Z,1012.13
2019-02-11T11:19:56.072Z,1012.14
2019-02-11T11:20:56.081Z,1012.21
2019-02-11T11:21:56.096Z,1012.14
2019-02-11T11:22:56.038Z,1012.17
2019-02-11T11:23:56.053Z,1012.18
2019-02-11T11:24:56.016Z,1012.24
2019-02-11T11:25:55.996Z,1012.20
2019-02-11T11:26:55.984Z,1012.20
2019-02-11T11:27:56.027Z,1012.25
2019-02-11T11:28:55.965Z,1012.21
2019-02-11T11:29:55.952Z,1012.22
2019-02-11T11:30:55.938Z,1012.22
2019-02-11T11:31:55.925Z,1012.20
2019-02-11T11:32:55.935Z,1012.25
2019-02-11T11:33:55.915Z,1012.26
2019-02-11T11:34:55.978Z,1012.30
2019-02-11T11:35:55.929Z,1012.34
2019-02-11T11:36:55.894Z,1012.33
2019-02-11T11:37:56.252Z,1012.34
2019-02-11T11:38:55.899Z,1012.29
2019-02-11T11:39:57.687Z,1012.36
2019-02-11T11:40:55.828Z,1012.30
2019-02-11T11:41:55.874Z,1012.31
2019-02-11T11:42:55.838Z,1012.33
2019-02-11T11:43:55.837Z,1012.34
2019-02-11T11:44:55.834Z,1012.42
2019-02-11T11:45:55.967Z,1012.39
2019-02-11T11:46:55.784Z,1012.41
2019-02-11T11:47:55.747Z,1012.39
2019-02-11T11:48:55.800Z,1012.42
2019-02-11T11:49:55.735Z,1012.37
2019-02-11T11:50:55.767Z,1012.33
2019-02-11T11:51:55.740Z,1012.35
2019-02-11T11:52:55.695Z,1012.37
2019-02-11T11:53:55.693Z,1012.35
2019-02-11T11:54:55.671Z,1012.35
2019-02-11T11:55:55.686Z,1012.36
2019-02-11T11:56:58.987Z,1012.41
2019-02-11T11:57:55.661Z,1012.36
2019-02-11T11:58:55.655Z,1012.39
2019-02-11T11:59:55.639Z,1012.43
2019-02-11T12:00:55.640Z,1012.48
2019-02-11T12:01:55.596Z,1012.53
2019-02-11T12:03:02.866Z,1012.55
2019-02-11T12:03:56.647Z,1012.55
2019-02-11T12:04:55.586Z,1012.59
2019-02-11T12:05:55.557Z,1012.61
2019-02-11T12:06:55.603Z,1012.68